Time;durP1;ratioP1;P1;durP2;ratioP2;P2;SDS_P1;SDS_P2;PMS_P1;PMS_P2;Temp;Humidity;BMP_temperature;BMP_pressure;BME280_temperature;BME280_humidity;BME280_pressure;Samples;Min_cycle;Max_cycle;Signal;HPM_P1;HPM_P2
2023/03/03 00:01:14;;;;;;;28.42;15.95;;;26.40;99.90;;;;;;5133959;28;20030;-64
2023/03/03 00:03:40;;;;;;;29.10;15.48;;;26.50;99.90;;;;;;5133886;28;20047;-64
2023/03/03 00:06:11;;;;;;;99.70;63.17;;;26.50;99.90;;;;;;5133508;28;20035;-64
2023/03/03 00:08:38;;;;;;;42.65;24.90;;;26.50;99.90;;;;;;5134630;27;20027;-64
2023/03/03 00:11:06;;;;;;;41.95;23.67;;;26.50;99.90;;;;;;5137735;27;20068;-64
2023/03/03 00:13:43;;;;;;;28.05;16.25;;;26.50;99.90;;;;;;5137632;27;20027;-64
2023/03/03 00:16:23;;;;;;;32.35;15.00;;;26.50;99.90;;;;;;5137452;27;20046;-64
2023/03/03 00:18:50;;;;;;;31.25;18.17;;;26.50;99.90;;;;;;5137281;27;20023;-64
2023/03/03 00:21:27;;;;;;;29.27;18.17;;;26.50;99.90;;;;;;5137265;27;20038;-64
2023/03/03 00:24:15;;;;;;;23.92;15.13;;;26.50;99.90;;;;;;5137348;27;20031;-64
2023/03/03 00:26:47;;;;;;;29.90;17.65;;;26.50;99.90;;;;;;5136784;27;20487;-64
2023/03/03 00:29:35;;;;;;;37.50;21.77;;;26.50;99.90;;;;;;5137325;27;20098;-63
2023/03/03 00:32:25;;;;;;;32.08;18.05;;;26.50;99.90;;;;;;5137213;27;20027;-64
2023/03/03 00:34:53;;;;;;;68.13;43.33;;;26.50;99.90;;;;;;5033863;28;20033;-64
2023/03/03 00:37:34;;;;;;;26.08;14.27;;;26.50;99.90;;;;;;5033880;28;20038;-64
2023/03/03 00:40:20;;;;;;;27.02;14.05;;;26.50;99.90;;;;;;5033589;28;20029;-64
2023/03/03 00:42:56;;;;;;;26.45;14.40;;;26.50;99.90;;;;;;4955525;29;20098;-64
2023/03/03 00:45:28;;;;;;;40.42;13.93;;;26.50;99.90;;;;;;4955240;28;20051;-63
2023/03/03 00:47:56;;;;;;;34.35;13.57;;;26.50;99.90;;;;;;4955620;29;20039;-64
2023/03/03 00:50:34;;;;;;;30.15;14.68;;;26.50;99.90;;;;;;4955307;29;20038;-64
2023/03/03 00:53:02;;;;;;;34.78;15.60;;;26.60;99.90;;;;;;4949861;28;20059;-64
2023/03/03 00:55:29;;;;;;;28.38;16.15;;;26.60;99.90;;;;;;4944718;29;20035;-64
2023/03/03 00:57:55;;;;;;;61.70;35.13;;;26.70;99.90;;;;;;4955216;29;20028;-64
2023/03/03 01:00:22;;;;;;;63.08;40.60;;;26.70;99.90;;;;;;4949107;29;20044;-64
2023/03/03 01:02:49;;;;;;;43.13;32.08;;;26.80;99.90;;;;;;4936167;29;20039;-64
2023/03/03 01:05:17;;;;;;;48.30;38.38;;;26.80;99.90;;;;;;4935790;29;20054;-68
2023/03/03 01:07:43;;;;;;;50.15;38.13;;;26.90;99.90;;;;;;4936214;29;20389;-68
2023/03/03 01:10:10;;;;;;;37.92;27.48;;;26.90;99.90;;;;;;4953476;29;20544;-68
2023/03/03 01:12:37;;;;;;;42.80;34.65;;;27.00;99.90;;;;;;5034778;28;20108;-67
2023/03/03 01:15:06;;;;;;;26.13;16.23;;;26.90;99.90;;;;;;5053095;28;20025;-68
2023/03/03 01:17:33;;;;;;;64.40;39.83;;;26.90;99.90;;;;;;5052965;28;20502;-68
2023/03/03 01:20:00;;;;;;;95.47;55.75;;;27.00;99.90;;;;;;5052499;28;20064;-67
2023/03/03 01:22:27;;;;;;;43.20;28.30;;;27.00;99.90;;;;;;5033106;28;20032;-67
2023/03/03 01:24:53;;;;;;;52.40;38.10;;;27.10;99.90;;;;;;5038885;28;20116;-65
2023/03/03 01:27:20;;;;;;;37.17;23.58;;;27.10;99.90;;;;;;5052542;28;20048;-65
2023/03/03 01:29:46;;;;;;;54.90;32.35;;;27.10;99.90;;;;;;5052978;28;20033;-66
2023/03/03 01:32:13;;;;;;;26.25;13.02;;;27.10;99.90;;;;;;5053014;28;20424;-66
2023/03/03 01:34:39;;;;;;;38.67;21.13;;;27.10;99.90;;;;;;5052749;28;20044;-66
2023/03/03 01:37:06;;;;;;;49.47;32.55;;;27.10;99.90;;;;;;5052835;28;20025;-66
2023/03/03 01:39:32;;;;;;;95.10;59.85;;;27.10;99.90;;;;;;5052780;28;20150;-66
2023/03/03 01:41:59;;;;;;;34.65;21.98;;;27.20;99.90;;;;;;5052523;28;20120;-67
2023/03/03 01:44:25;;;;;;;415.23;249.10;;;27.20;99.90;;;;;;5053864;28;20115;-66
2023/03/03 01:47:03;;;;;;;89.63;51.08;;;27.20;99.90;;;;;;5115160;27;20071;-66
2023/03/03 01:49:39;;;;;;;121.55;66.88;;;27.20;99.90;;;;;;5115146;28;20495;-66
2023/03/03 01:52:27;;;;;;;25.98;14.10;;;27.30;99.90;;;;;;5115129;28;20072;-67
2023/03/03 01:55:00;;;;;;;112.43;51.83;;;27.30;99.90;;;;;;5114994;28;20464;-66
2023/03/03 01:57:32;;;;;;;86.32;46.03;;;27.30;99.90;;;;;;5115026;28;20042;-66
2023/03/03 01:59:59;;;;;;;19.92;10.98;;;27.40;99.90;;;;;;5114892;28;20020;-66
2023/03/03 02:02:27;;;;;;;198.88;96.95;;;27.50;99.90;;;;;;5114903;28;20486;-66
2023/03/03 02:04:54;;;;;;;20.30;12.95;;;27.50;99.90;;;;;;5114665;28;20043;-66
2023/03/03 02:07:24;;;;;;;22.83;13.75;;;27.60;99.90;;;;;;5114692;27;20361;-67
2023/03/03 02:10:12;;;;;;;60.55;32.45;;;27.60;99.90;;;;;;5114950;28;20495;-66
2023/03/03 02:12:43;;;;;;;36.60;19.83;;;27.60;99.90;;;;;;5114600;28;20103;-66
2023/03/03 02:15:22;;;;;;;58.15;30.38;;;27.60;99.90;;;;;;5114572;28;20102;-67
2023/03/03 02:17:52;;;;;;;34.67;18.10;;;27.70;99.90;;;;;;5114548;28;20388;-66
2023/03/03 02:20:28;;;;;;;22.38;13.10;;;27.70;99.90;;;;;;5114589;28;20111;-66
2023/03/03 02:23:01;;;;;;;47.13;31.00;;;27.80;99.90;;;;;;5114470;28;20059;-65
2023/03/03 02:25:40;;;;;;;35.40;19.52;;;27.80;99.90;;;;;;5114305;28;20396;-67
2023/03/03 02:28:06;;;;;;;25.17;14.32;;;27.80;99.90;;;;;;5114459;28;20071;-66
2023/03/03 02:30:38;;;;;;;36.92;20.73;;;27.80;99.90;;;;;;5114255;28;20030;-66
2023/03/03 02:33:05;;;;;;;23.35;14.10;;;27.90;99.90;;;;;;5114073;28;20069;-66
2023/03/03 02:35:37;;;;;;;18.17;12.10;;;28.00;99.90;;;;;;5114505;28;20028;-66
2023/03/03 02:38:21;;;;;;;134.93;85.38;;;28.00;99.90;;;;;;5114383;28;20042;-65
2023/03/03 02:41:27;;;;;;;20.88;11.43;;;28.00;99.90;;;;;;5114033;28;20028;-65
2023/03/03 02:44:04;;;;;;;36.92;23.35;;;28.10;99.90;;;;;;5071340;28;20066;-62
2023/03/03 02:46:35;;;;;;;83.85;59.55;;;28.10;99.90;;;;;;5071333;28;20032;-63
2023/03/03 02:49:03;;;;;;;65.43;42.05;;;28.20;99.90;;;;;;5071405;28;20123;-64
2023/03/03 02:51:29;;;;;;;22.83;10.77;;;28.30;99.90;;;;;;5071265;28;20027;-63
2023/03/03 02:53:56;;;;;;;19.83;8.77;;;28.40;99.90;;;;;;5071390;28;20028;-64
2023/03/03 02:56:23;;;;;;;12.35;7.47;;;28.40;99.90;;;;;;5071282;28;20036;-67
2023/03/03 02:58:50;;;;;;;23.00;10.88;;;28.40;99.90;;;;;;5071175;28;20029;-68
2023/03/03 03:01:16;;;;;;;23.60;9.70;;;28.50;99.90;;;;;;5070876;28;20487;-67
2023/03/03 03:03:43;;;;;;;18.42;8.48;;;28.60;99.90;;;;;;5071217;28;20048;-71
2023/03/03 03:06:10;;;;;;;20.42;9.57;;;28.70;99.90;;;;;;5057077;28;20041;-69
2023/03/03 03:08:36;;;;;;;19.80;8.32;;;28.80;99.90;;;;;;5051144;28;20112;-68
2023/03/03 03:11:04;;;;;;;18.33;7.90;;;28.80;99.90;;;;;;5051216;28;20432;-68
2023/03/03 03:13:31;;;;;;;23.58;12.43;;;28.80;99.90;;;;;;5050086;28;20044;-68
2023/03/03 03:15:58;;;;;;;22.83;12.82;;;28.90;99.90;;;;;;5048167;28;20533;-71
2023/03/03 03:18:26;;;;;;;19.80;9.88;;;28.90;99.90;;;;;;5034701;28;20041;-68
2023/03/03 03:20:52;;;;;;;25.17;12.70;;;28.80;99.90;;;;;;5043224;28;20493;-68
2023/03/03 03:23:21;;;;;;;21.27;9.27;;;28.80;99.90;;;;;;5051168;28;20029;-67
2023/03/03 03:25:48;;;;;;;22.40;11.23;;;28.80;99.90;;;;;;5051330;28;20029;-66
2023/03/03 03:28:16;;;;;;;20.90;9.93;;;28.80;99.90;;;;;;5072828;28;20036;-68
2023/03/03 03:30:44;;;;;;;17.80;9.35;;;28.90;99.90;;;;;;5073435;28;20025;-68
2023/03/03 03:33:11;;;;;;;17.58;8.70;;;29.00;99.90;;;;;;5072685;28;20078;-68
2023/03/03 03:35:44;;;;;;;10.10;6.90;;;28.90;99.90;;;;;;5072879;28;20032;-66
2023/03/03 03:38:11;;;;;;;13.05;7.28;;;29.00;99.90;;;;;;5072968;28;20029;-68
2023/03/03 03:40:38;;;;;;;16.92;7.78;;;29.00;99.90;;;;;;5075377;28;20465;-68
2023/03/03 03:43:05;;;;;;;17.98;6.95;;;29.20;99.90;;;;;;5083249;28;20037;-68
2023/03/03 03:45:31;;;;;;;15.63;5.70;;;29.30;99.90;;;;;;5076822;28;20097;-68
2023/03/03 03:47:58;;;;;;;8.88;5.40;;;29.30;99.90;;;;;;5076907;28;20125;-68
2023/03/03 03:50:25;;;;;;;13.25;6.03;;;29.40;99.90;;;;;;5076709;28;20021;-70
2023/03/03 03:52:51;;;;;;;11.77;6.03;;;29.40;99.90;;;;;;5076735;28;20032;-67
2023/03/03 03:55:18;;;;;;;11.43;6.85;;;29.40;99.90;;;;;;5076783;28;20464;-67
2023/03/03 03:57:44;;;;;;;15.38;9.02;;;29.40;99.90;;;;;;5076865;28;20147;-67
2023/03/03 04:00:11;;;;;;;21.75;12.00;;;29.50;99.90;;;;;;5076992;28;20032;-67
2023/03/03 04:02:38;;;;;;;12.50;8.20;;;29.50;99.90;;;;;;5076438;28;20021;-67
2023/03/03 04:05:05;;;;;;;14.07;7.68;;;29.60;99.90;;;;;;5085945;28;20039;-66
2023/03/03 04:07:31;;;;;;;12.95;7.63;;;29.70;99.90;;;;;;5116929;28;20042;-67
2023/03/03 04:09:58;;;;;;;15.55;7.82;;;29.70;99.90;;;;;;5117012;28;20019;-68
2023/03/03 04:12:25;;;;;;;13.30;8.05;;;29.70;99.90;;;;;;5128550;27;20039;-69
2023/03/03 04:14:51;;;;;;;15.25;7.97;;;29.80;99.90;;;;;;5117115;28;20022;-68
2023/03/03 04:17:23;;;;;;;14.65;8.90;;;29.90;99.90;;;;;;5117045;28;20051;-68
2023/03/03 04:19:52;;;;;;;16.13;9.00;;;29.90;99.90;;;;;;5116962;28;20068;-70
2023/03/03 04:22:19;;;;;;;14.55;8.77;;;30.00;99.90;;;;;;5117073;28;20033;-68
2023/03/03 04:24:47;;;;;;;13.18;9.50;;;30.00;99.90;;;;;;5117165;28;20019;-70
2023/03/03 04:27:14;;;;;;;14.80;8.88;;;30.00;99.90;;;;;;5116566;28;20028;-70
2023/03/03 04:29:41;;;;;;;16.45;10.68;;;30.00;99.90;;;;;;5122375;27;20445;-71
2023/03/03 04:32:08;;;;;;;15.98;8.90;;;30.00;99.90;;;;;;5135847;27;20098;-70
2023/03/03 04:34:34;;;;;;;13.02;10.27;;;30.20;99.90;;;;;;5135652;27;20020;-69
2023/03/03 04:37:01;;;;;;;21.92;11.73;;;30.20;99.90;;;;;;5136624;27;20098;-70
2023/03/03 04:39:28;;;;;;;17.02;10.27;;;30.20;99.90;;;;;;5137479;27;20026;-70
2023/03/03 04:41:55;;;;;;;19.08;10.38;;;30.20;99.90;;;;;;5136386;27;20031;-69
2023/03/03 04:44:21;;;;;;;21.45;12.10;;;30.30;99.90;;;;;;5134546;27;20015;-70
2023/03/03 04:46:48;;;;;;;18.75;10.73;;;30.40;99.90;;;;;;5129836;27;20507;-69
2023/03/03 04:49:14;;;;;;;16.75;10.32;;;30.50;99.90;;;;;;5134013;27;20029;-69
2023/03/03 04:51:41;;;;;;;15.05;10.10;;;30.50;99.90;;;;;;5134650;27;20518;-68
2023/03/03 04:54:07;;;;;;;19.88;11.43;;;30.50;99.90;;;;;;5131681;27;20026;-67
2023/03/03 04:56:34;;;;;;;21.17;11.57;;;30.50;99.90;;;;;;5134696;27;20023;-67
2023/03/03 04:59:00;;;;;;;16.80;10.25;;;30.50;99.90;;;;;;5134988;27;20023;-68
2023/03/03 05:01:27;;;;;;;17.25;9.85;;;30.50;99.90;;;;;;5134889;27;20042;-68
2023/03/03 05:03:53;;;;;;;24.42;13.30;;;30.50;99.90;;;;;;5134886;27;20015;-67
2023/03/03 05:06:20;;;;;;;26.13;12.90;;;30.50;99.90;;;;;;5133787;27;20542;-68
2023/03/03 05:08:47;;;;;;;22.48;9.85;;;30.50;99.90;;;;;;5133472;27;20111;-70
2023/03/03 05:11:13;;;;;;;19.20;12.13;;;30.60;99.90;;;;;;5133804;27;20026;-69
2023/03/03 05:13:40;;;;;;;19.15;9.75;;;30.60;99.90;;;;;;5132524;27;20019;-67
2023/03/03 05:16:07;;;;;;;17.63;8.52;;;30.50;99.90;;;;;;5116090;22;20072;-69
2023/03/03 05:18:33;;;;;;;16.08;9.60;;;30.60;99.90;;;;;;5093540;28;20052;-68
2023/03/03 05:21:00;;;;;;;17.33;8.88;;;30.70;99.90;;;;;;5093531;28;20103;-70
2023/03/03 05:23:26;;;;;;;11.85;9.05;;;30.80;99.90;;;;;;5093648;28;20078;-69
2023/03/03 05:25:53;;;;;;;21.23;9.15;;;30.80;99.90;;;;;;5093565;28;20027;-69
2023/03/03 05:28:20;;;;;;;20.38;8.80;;;30.80;99.90;;;;;;5093540;28;20436;-66
2023/03/03 05:30:46;;;;;;;16.00;9.05;;;30.80;99.90;;;;;;5094171;28;20023;-66
2023/03/03 05:33:15;;;;;;;12.63;8.05;;;30.80;99.90;;;;;;5094343;28;20012;-67
2023/03/03 05:35:42;;;;;;;16.00;9.13;;;30.90;99.90;;;;;;5094067;28;20023;-67
2023/03/03 05:38:09;;;;;;;16.05;8.80;;;31.00;99.90;;;;;;5094264;28;20032;-68
2023/03/03 05:40:36;;;;;;;17.35;9.50;;;30.90;99.90;;;;;;5094317;28;20066;-72
2023/03/03 05:43:03;;;;;;;21.48;8.90;;;31.00;99.90;;;;;;5093897;28;20028;-67
2023/03/03 05:45:29;;;;;;;11.52;7.95;;;31.00;99.90;;;;;;5093937;28;20113;-68
2023/03/03 05:47:56;;;;;;;13.88;8.13;;;31.10;99.90;;;;;;5094076;28;20099;-67
2023/03/03 05:50:23;;;;;;;13.90;7.80;;;31.20;99.90;;;;;;5093807;28;20027;-67
2023/03/03 05:52:51;;;;;;;12.38;8.23;;;31.20;99.90;;;;;;5090917;28;20540;-67
2023/03/03 05:55:18;;;;;;;12.50;7.20;;;31.20;99.90;;;;;;5091435;28;20043;-66
2023/03/03 05:57:45;;;;;;;12.52;8.00;;;31.20;99.90;;;;;;5091528;28;20079;-68
2023/03/03 06:00:13;;;;;;;12.80;7.90;;;31.20;99.90;;;;;;5091351;28;20536;-67
2023/03/03 06:02:41;;;;;;;14.52;8.13;;;31.20;99.90;;;;;;5090271;28;20028;-68
2023/03/03 06:05:08;;;;;;;13.18;8.15;;;31.30;99.90;;;;;;5090358;28;20028;-67
2023/03/03 06:07:35;;;;;;;14.63;7.00;;;31.30;99.90;;;;;;5091013;28;20391;-68
2023/03/03 06:10:02;;;;;;;14.10;7.05;;;31.30;99.90;;;;;;5092091;28;20108;-68
2023/03/03 06:12:29;;;;;;;12.52;6.70;;;31.30;99.90;;;;;;5091646;28;20047;-68
2023/03/03 06:14:55;;;;;;;14.50;7.10;;;31.30;99.90;;;;;;5091710;28;20036;-68
2023/03/03 06:17:22;;;;;;;14.75;6.40;;;31.30;99.90;;;;;;5091171;28;20720;-68
2023/03/03 06:19:48;;;;;;;12.18;6.85;;;31.40;99.90;;;;;;5090871;28;20112;-68
2023/03/03 06:22:15;;;;;;;21.50;6.72;;;31.40;99.90;;;;;;5091506;28;20058;-68
2023/03/03 06:24:41;;;;;;;7.80;4.85;;;31.40;99.90;;;;;;5090607;28;20082;-68
2023/03/03 06:27:09;;;;;;;24.92;16.60;;;31.40;99.90;;;;;;5089300;28;20460;-67
2023/03/03 06:29:35;;;;;;;26.30;14.48;;;31.40;99.90;;;;;;5090778;28;20653;-67
2023/03/03 06:32:02;;;;;;;15.93;8.90;;;31.50;99.90;;;;;;5090547;28;20016;-67
2023/03/03 06:34:29;;;;;;;44.42;23.33;;;31.50;99.90;;;;;;5089167;28;20024;-66
2023/03/03 06:36:56;;;;;;;17.50;10.30;;;31.60;99.90;;;;;;5091055;28;20028;-68
2023/03/03 06:39:22;;;;;;;22.08;13.07;;;31.60;99.90;;;;;;5091331;28;20468;-68
2023/03/03 06:41:49;;;;;;;12.90;7.15;;;31.70;99.90;;;;;;5090289;28;20114;-68
2023/03/03 06:44:15;;;;;;;11.27;5.63;;;31.70;99.90;;;;;;5090876;28;20099;-69
2023/03/03 06:46:42;;;;;;;16.00;7.20;;;31.70;99.90;;;;;;5073222;28;20484;-68
2023/03/03 06:49:08;;;;;;;11.55;7.07;;;31.60;99.90;;;;;;5092334;28;20016;-69
2023/03/03 06:51:38;;;;;;;13.43;6.45;;;31.70;99.90;;;;;;5092175;28;20508;-69
2023/03/03 06:54:27;;;;;;;14.48;5.55;;;31.80;99.90;;;;;;5092158;28;20024;-70
2023/03/03 06:56:59;;;;;;;14.35;6.18;;;31.90;99.90;;;;;;5090725;28;20365;-70
2023/03/03 06:59:27;;;;;;;10.23;5.57;;;31.90;99.90;;;;;;5092870;28;20024;-70
2023/03/03 07:01:54;;;;;;;12.38;6.25;;;32.00;99.90;;;;;;5093474;28;20020;-73
2023/03/03 07:04:29;;;;;;;28.85;20.35;;;32.00;99.90;;;;;;5091913;28;20107;-70
2023/03/03 07:07:19;;;;;;;17.20;10.00;;;32.00;99.90;;;;;;5082482;28;20060;-70
2023/03/03 07:09:48;;;;;;;12.27;6.80;;;32.10;99.90;;;;;;5081241;28;20032;-70
2023/03/03 07:12:23;;;;;;;12.77;5.80;;;32.00;99.90;;;;;;5071881;28;20020;-69
2023/03/03 07:14:58;;;;;;;13.07;7.07;;;31.90;99.90;;;;;;5073049;28;20045;-70
2023/03/03 07:17:25;;;;;;;10.38;5.63;;;31.90;99.90;;;;;;5072894;28;20020;-69
2023/03/03 07:19:52;;;;;;;19.70;7.40;;;31.90;99.90;;;;;;5072878;28;20028;-69
2023/03/03 07:22:20;;;;;;;18.10;7.38;;;31.90;99.90;;;;;;5073422;28;20462;-72
2023/03/03 07:24:52;;;;;;;11.88;6.63;;;31.90;99.90;;;;;;5073180;28;20035;-68
2023/03/03 07:27:21;;;;;;;9.98;6.13;;;31.80;99.90;;;;;;5085170;28;20477;-67
2023/03/03 07:29:50;;;;;;;13.85;6.88;;;31.80;99.90;;;;;;5074267;28;20073;-68
2023/03/03 07:32:37;;;;;;;12.48;6.80;;;31.80;99.90;;;;;;5090001;28;20024;-69
2023/03/03 07:35:31;;;;;;;19.15;5.38;;;31.90;99.90;;;;;;5090920;28;20388;-73
2023/03/03 07:37:58;;;;;;;10.48;5.28;;;31.90;99.90;;;;;;5092079;28;20054;-69
2023/03/03 07:40:33;;;;;;;6.78;4.90;;;31.90;99.90;;;;;;5091713;28;20008;-69
2023/03/03 07:43:01;;;;;;;8.10;5.10;;;31.90;99.90;;;;;;5089778;28;20024;-69
2023/03/03 07:45:30;;;;;;;10.98;5.47;;;31.90;99.90;;;;;;5092416;28;20059;-67
2023/03/03 07:48:12;;;;;;;11.95;5.63;;;31.90;99.90;;;;;;5086866;28;20107;-67
2023/03/03 07:50:40;;;;;;;9.27;5.30;;;31.90;99.90;;;;;;5078592;28;20040;-66
2023/03/03 07:53:22;;;;;;;9.73;5.18;;;32.00;99.90;;;;;;5073857;28;20020;-69
2023/03/03 07:55:49;;;;;;;9.63;5.72;;;32.10;99.90;;;;;;5078876;28;20032;-68
2023/03/03 07:58:22;;;;;;;8.82;5.32;;;32.10;99.90;;;;;;5092917;28;20431;-69
2023/03/03 08:01:18;;;;;;;14.02;5.45;;;32.10;99.90;;;;;;5092946;28;20487;-69
2023/03/03 08:03:48;;;;;;;8.00;4.90;;;32.00;99.90;;;;;;5092748;28;20137;-68
2023/03/03 08:06:32;;;;;;;9.60;5.75;;;32.00;99.90;;;;;;5092548;28;20047;-68
2023/03/03 08:09:18;;;;;;;10.48;4.88;;;31.90;99.90;;;;;;5093161;28;20028;-69
2023/03/03 08:11:55;;;;;;;7.88;5.28;;;31.90;99.90;;;;;;5010837;28;20087;-69
2023/03/03 08:14:34;;;;;;;9.77;6.78;;;31.90;99.90;;;;;;5010464;28;20034;-69
2023/03/03 08:17:01;;;;;;;9.88;6.05;;;31.90;99.90;;;;;;5011061;28;20060;-69
2023/03/03 08:19:30;;;;;;;11.75;5.47;;;31.80;99.90;;;;;;5010130;28;20065;-70
2023/03/03 08:22:08;;;;;;;9.30;5.65;;;31.80;99.90;;;;;;5010605;28;20033;-69
2023/03/03 08:24:35;;;;;;;12.60;7.88;;;31.80;99.90;;;;;;5009861;28;20077;-70
2023/03/03 08:27:01;;;;;;;16.38;8.20;;;31.80;99.90;;;;;;5010694;28;20108;-69
2023/03/03 08:29:27;;;;;;;13.23;6.32;;;31.90;99.90;;;;;;5009457;28;20034;-69
2023/03/03 08:31:54;;;;;;;12.38;5.13;;;32.00;99.90;;;;;;5013058;28;20368;-69
2023/03/03 08:34:21;;;;;;;7.72;4.82;;;32.00;99.90;;;;;;5014844;28;20400;-68
2023/03/03 08:36:48;;;;;;;10.98;5.45;;;32.00;99.90;;;;;;5033182;28;20029;-68
2023/03/03 08:39:15;;;;;;;15.82;6.20;;;32.10;99.90;;;;;;5018052;28;20505;-68
2023/03/03 08:41:43;;;;;;;11.55;5.40;;;32.10;99.90;;;;;;5034848;28;20219;-69
2023/03/03 08:44:10;;;;;;;10.82;5.85;;;32.20;99.90;;;;;;5034103;28;20533;-69
2023/03/03 08:46:37;;;;;;;9.13;5.95;;;32.10;99.90;;;;;;5034095;28;20144;-68
2023/03/03 08:49:07;;;;;;;9.63;6.97;;;32.10;99.90;;;;;;5034162;28;20459;-67
2023/03/03 08:51:33;;;;;;;10.52;5.50;;;32.10;99.90;;;;;;5033656;28;20108;-69
2023/03/03 08:54:00;;;;;;;22.70;13.23;;;32.10;99.90;;;;;;5033921;28;20029;-69
2023/03/03 08:56:26;;;;;;;16.95;7.97;;;32.00;99.90;;;;;;5033981;28;20021;-68
2023/03/03 08:58:53;;;;;;;12.60;6.03;;;32.10;99.90;;;;;;5020367;28;20065;-64
2023/03/03 09:01:19;;;;;;;19.10;5.05;;;32.10;99.90;;;;;;5013992;28;20109;-68
2023/03/03 09:03:46;;;;;;;11.70;5.25;;;32.10;99.90;;;;;;5014036;28;20115;-68
2023/03/03 09:06:12;;;;;;;9.63;5.43;;;32.10;99.90;;;;;;5013405;28;20026;-68
2023/03/03 09:08:39;;;;;;;11.25;6.20;;;32.10;99.90;;;;;;5073071;28;20028;-71
2023/03/03 09:11:21;;;;;;;8.60;4.90;;;32.10;99.90;;;;;;5096057;28;20023;-68
2023/03/03 09:13:52;;;;;;;11.48;5.53;;;32.00;99.90;;;;;;5095825;28;20024;-68
2023/03/03 09:16:20;;;;;;;9.90;5.50;;;32.00;99.90;;;;;;5095582;28;20059;-67
2023/03/03 09:18:47;;;;;;;22.17;6.70;;;32.00;99.90;;;;;;5095536;28;20020;-68
2023/03/03 09:21:31;;;;;;;9.80;6.03;;;31.90;99.90;;;;;;5095753;28;20020;-67
2023/03/03 09:23:59;;;;;;;12.35;7.22;;;31.90;99.90;;;;;;5095515;28;20093;-68
2023/03/03 09:26:30;;;;;;;18.77;10.90;;;32.00;99.90;;;;;;5077399;28;20020;-67
2023/03/03 09:29:20;;;;;;;17.13;10.93;;;31.90;99.90;;;;;;5095585;28;20160;-68
2023/03/03 09:31:51;;;;;;;17.63;9.45;;;31.90;99.90;;;;;;5095065;28;20024;-67
2023/03/03 09:34:21;;;;;;;15.85;8.38;;;31.90;99.90;;;;;;5095465;28;20024;-68
2023/03/03 09:36:49;;;;;;;12.88;8.27;;;31.90;99.90;;;;;;5095303;28;20449;-67
2023/03/03 09:39:26;;;;;;;14.75;7.75;;;31.90;99.90;;;;;;5095227;28;20106;-68
2023/03/03 09:41:53;;;;;;;13.80;9.93;;;31.90;99.90;;;;;;5094901;28;20111;-68
2023/03/03 09:44:40;;;;;;;16.48;11.00;;;31.90;99.90;;;;;;5095173;28;20103;-68
2023/03/03 09:47:29;;;;;;;17.83;11.57;;;31.90;99.90;;;;;;5094785;28;20020;-68
2023/03/03 09:49:56;;;;;;;18.50;9.60;;;31.90;99.90;;;;;;5095577;28;20016;-68
2023/03/03 09:52:23;;;;;;;14.93;9.82;;;31.90;99.90;;;;;;5095208;28;20065;-68
2023/03/03 09:55:10;;;;;;;20.73;12.20;;;31.90;99.90;;;;;;5095284;28;20016;-68
2023/03/03 09:57:46;;;;;;;21.15;11.48;;;31.90;99.90;;;;;;5094914;28;20103;-68
2023/03/03 10:00:14;;;;;;;22.42;14.05;;;31.90;99.90;;;;;;5095013;28;20020;-68
2023/03/03 10:02:48;;;;;;;26.58;14.65;;;31.90;99.90;;;;;;5094747;28;20032;-67
2023/03/03 10:05:25;;;;;;;30.15;15.20;;;31.90;99.90;;;;;;5088596;28;20055;-68
2023/03/03 10:08:01;;;;;;;33.15;18.65;;;31.80;99.90;;;;;;5093538;28;20028;-68
2023/03/03 10:11:03;;;;;;;35.40;20.70;;;31.80;99.90;;;;;;5092916;28;20027;-68
2023/03/03 10:13:38;;;;;;;38.55;23.33;;;31.80;99.90;;;;;;5093392;28;20019;-68
2023/03/03 10:16:27;;;;;;;34.88;20.85;;;31.80;99.90;;;;;;5101103;22;20070;-67
2023/03/03 10:19:03;;;;;;;49.17;31.10;;;31.80;99.90;;;;;;5008703;28;20025;-69
2023/03/03 10:21:31;;;;;;;55.42;34.20;;;31.70;99.90;;;;;;4990793;28;20413;-67
2023/03/03 10:24:21;;;;;;;39.42;20.80;;;31.70;99.90;;;;;;5008127;28;20462;-68
2023/03/03 10:27:04;;;;;;;35.63;20.30;;;31.60;99.90;;;;;;5008696;28;20041;-68
2023/03/03 10:29:46;;;;;;;30.10;16.08;;;31.60;99.90;;;;;;5011441;28;20100;-67
2023/03/03 10:32:15;;;;;;;19.75;10.15;;;31.50;99.90;;;;;;5011382;28;20113;-69
2023/03/03 10:35:02;;;;;;;21.30;12.63;;;31.60;99.90;;;;;;5011143;28;20524;-68
2023/03/03 10:37:35;;;;;;;29.15;17.20;;;31.60;99.90;;;;;;5011228;28;20057;-69
2023/03/03 10:40:31;;;;;;;34.13;19.90;;;31.50;99.90;;;;;;5011682;28;20029;-68
2023/03/03 10:43:00;;;;;;;32.63;18.10;;;31.50;99.90;;;;;;5011817;28;20030;-68
2023/03/03 10:45:48;;;;;;;26.52;15.82;;;31.40;99.90;;;;;;5017259;28;20056;-67
2023/03/03 10:48:37;;;;;;;25.15;13.57;;;31.30;99.90;;;;;;5031043;28;20034;-68
2023/03/03 10:51:21;;;;;;;33.03;16.85;;;31.20;99.90;;;;;;5012827;28;20075;-70
2023/03/03 10:54:08;;;;;;;27.80;17.48;;;31.00;99.90;;;;;;5030565;28;20021;-68
2023/03/03 10:56:56;;;;;;;19.65;11.13;;;31.00;99.90;;;;;;5030480;28;20070;-67
2023/03/03 10:59:44;;;;;;;19.80;11.27;;;30.90;99.90;;;;;;4948269;29;20043;-67
2023/03/03 11:02:45;;;;;;;15.95;10.23;;;30.70;99.90;;;;;;4949434;29;20039;-69
2023/03/03 11:05:31;;;;;;;17.15;8.55;;;30.50;99.90;;;;;;4991838;28;20435;-67
2023/03/03 11:08:03;;;;;;;12.38;8.10;;;30.40;99.90;;;;;;4991218;28;20089;-69
2023/03/03 11:10:49;;;;;;;15.20;8.02;;;30.40;99.90;;;;;;4991891;28;20515;-68
2023/03/03 11:13:51;;;;;;;18.40;9.65;;;30.30;99.90;;;;;;4991141;28;20122;-69
2023/03/03 11:16:46;;;;;;;22.80;13.57;;;30.40;99.90;;;;;;4991035;28;20156;-68
2023/03/03 11:19:29;;;;;;;25.50;14.27;;;30.30;99.90;;;;;;4990082;28;20052;-68
2023/03/03 11:22:04;;;;;;;28.98;16.95;;;30.30;99.90;;;;;;4990920;28;20027;-70
2023/03/03 11:25:10;;;;;;;32.53;18.15;;;30.30;99.90;;;;;;4990985;28;20519;-69
2023/03/03 11:27:47;;;;;;;28.35;19.00;;;30.30;99.90;;;;;;4990657;28;20137;-69
2023/03/03 11:30:41;;;;;;;38.97;22.20;;;30.30;99.90;;;;;;4990545;28;20108;-68
2023/03/03 11:33:16;;;;;;;34.97;22.05;;;30.20;99.90;;;;;;4990688;28;20052;-68
2023/03/03 11:35:52;;;;;;;28.10;17.70;;;30.20;99.90;;;;;;4987926;28;20113;-68
2023/03/03 11:38:38;;;;;;;42.80;21.88;;;30.20;99.90;;;;;;4990298;28;20026;-68
2023/03/03 11:41:18;;;;;;;18.85;11.02;;;30.20;99.90;;;;;;4990381;28;20023;-67
2023/03/03 11:43:50;;;;;;;19.45;11.98;;;30.10;99.90;;;;;;5013254;28;20494;-68
2023/03/03 11:46:26;;;;;;;21.35;11.55;;;30.00;99.90;;;;;;5028276;28;20030;-68
2023/03/03 11:49:14;;;;;;;18.17;11.35;;;30.10;99.90;;;;;;5028636;28;20657;-68
2023/03/03 11:52:20;;;;;;;20.48;14.60;;;30.10;99.90;;;;;;5026281;28;20026;-68
2023/03/03 11:54:51;;;;;;;27.23;14.90;;;30.00;99.90;;;;;;5029964;28;20057;-68
2023/03/03 11:57:27;;;;;;;25.75;16.27;;;30.00;99.90;;;;;;5030783;28;20029;-67
2023/03/03 12:00:15;;;;;;;26.48;14.10;;;30.00;99.90;;;;;;5030381;28;20548;-68
2023/03/03 12:02:42;;;;;;;21.88;12.85;;;30.00;99.90;;;;;;5025617;28;20037;-71
2023/03/03 12:05:21;;;;;;;30.98;16.27;;;30.00;99.90;;;;;;5030241;28;20565;-69
2023/03/03 12:07:57;;;;;;;30.10;16.95;;;30.00;99.90;;;;;;5032408;28;20441;-68
2023/03/03 12:10:28;;;;;;;27.10;16.58;;;30.00;99.90;;;;;;5034959;28;20113;-69
2023/03/03 12:13:10;;;;;;;27.20;16.92;;;30.00;99.90;;;;;;5035300;28;20025;-68
2023/03/03 12:15:52;;;;;;;25.67;14.77;;;30.00;99.90;;;;;;5034987;28;20037;-67
2023/03/03 12:18:20;;;;;;;22.17;13.02;;;30.00;99.90;;;;;;5015361;28;20034;-66
2023/03/03 12:20:54;;;;;;;25.45;13.70;;;29.90;99.90;;;;;;5015152;28;20034;-71
2023/03/03 12:23:30;;;;;;;25.13;13.48;;;29.90;99.90;;;;;;5015259;28;20129;-67
2023/03/03 12:26:17;;;;;;;24.42;15.00;;;29.90;99.90;;;;;;5015234;28;20045;-71
2023/03/03 12:29:24;;;;;;;25.15;15.52;;;29.90;99.90;;;;;;5015276;28;20033;-68
2023/03/03 12:31:59;;;;;;;26.65;13.55;;;29.80;99.90;;;;;;4904419;29;20108;-68
2023/03/03 12:34:34;;;;;;;20.58;12.60;;;29.70;99.90;;;;;;4896069;29;20040;-67
2023/03/03 12:37:06;;;;;;;19.63;12.05;;;29.70;99.90;;;;;;4895353;29;20131;-68
2023/03/03 12:39:51;;;;;;;19.80;11.35;;;29.70;99.90;;;;;;4895028;29;20232;-67
2023/03/03 12:42:28;;;;;;;25.33;12.25;;;29.70;99.90;;;;;;4894568;29;20083;-68
2023/03/03 12:45:17;;;;;;;28.30;13.55;;;29.70;99.90;;;;;;4894907;29;20066;-68
2023/03/03 12:48:04;;;;;;;27.23;15.85;;;29.70;99.90;;;;;;4895756;29;20043;-68
2023/03/03 12:50:50;;;;;;;33.90;17.45;;;29.60;99.90;;;;;;4895166;29;20063;-70
2023/03/03 12:53:38;;;;;;;41.20;18.48;;;29.50;99.90;;;;;;4895370;28;20572;-65
2023/03/03 12:56:09;;;;;;;41.50;17.52;;;29.50;99.90;;;;;;4894882;29;20382;-73
2023/03/03 12:58:55;;;;;;;33.95;17.20;;;29.50;99.90;;;;;;4895490;29;20131;-72
2023/03/03 13:01:27;;;;;;;43.45;20.83;;;29.50;99.90;;;;;;4893341;29;20041;-74